createdAt,value
2019-03-12T00:00:13.321Z,32.10
2019-03-12T00:02:41.591Z,34.60
2019-03-12T00:05:10.107Z,37.90
2019-03-12T00:07:38.399Z,39.43
2019-03-12T00:10:08.253Z,43.53
2019-03-12T00:12:36.525Z,46.30
2019-03-12T00:15:06.225Z,48.03
2019-03-12T00:17:34.498Z,53.77
2019-03-12T00:20:03.018Z,58.33
2019-03-12T00:22:31.535Z,60.33
2019-03-12T00:25:00.046Z,60.73
2019-03-12T00:27:28.317Z,63.33
2019-03-12T00:29:56.592Z,68.23
2019-03-12T00:32:24.843Z,71.00
2019-03-12T00:34:53.127Z,75.70
2019-03-12T00:37:21.374Z,78.57
2019-03-12T00:39:49.874Z,79.03
2019-03-12T00:42:18.148Z,81.33
2019-03-12T00:44:46.394Z,86.70
2019-03-12T00:47:14.663Z,87.53
2019-03-12T00:49:42.934Z,87.50
2019-03-12T00:52:11.185Z,88.83
2019-03-12T00:54:39.699Z,92.73
2019-03-12T00:57:08.201Z,93.20
2019-03-12T00:59:36.712Z,90.43
2019-03-12T01:02:05.198Z,89.10
2019-03-12T01:04:33.478Z,93.53
2019-03-12T01:07:01.721Z,95.40
2019-03-12T01:09:30.220Z,94.93
2019-03-12T01:11:58.496Z,99.57
2019-03-12T01:14:26.745Z,101.00
2019-03-12T01:16:55.023Z,101.37
2019-03-12T01:19:23.365Z,102.63
2019-03-12T01:21:51.612Z,102.73
2019-03-12T01:24:19.893Z,102.60
2019-03-12T01:26:48.171Z,105.57
2019-03-12T01:29:16.460Z,104.47
2019-03-12T01:31:44.945Z,109.43
2019-03-12T01:34:13.211Z,108.53
2019-03-12T01:36:41.486Z,109.70
2019-03-12T01:39:10.014Z,109.13
2019-03-12T01:41:38.299Z,111.60
2019-03-12T01:44:06.805Z,111.63
2019-03-12T01:46:35.079Z,113.13
2019-03-12T01:49:03.422Z,115.80
2019-03-12T01:51:31.678Z,117.80
2019-03-12T01:53:59.953Z,116.73
2019-03-12T01:56:28.453Z,118.00
2019-03-12T01:58:56.733Z,121.80
2019-03-12T02:01:25.234Z,122.73
2019-03-12T02:03:53.505Z,123.97
2019-03-12T02:06:21.769Z,124.53
2019-03-12T02:08:50.045Z,124.60
2019-03-12T02:11:18.309Z,125.90
2019-03-12T02:13:46.590Z,126.63
2019-03-12T02:16:14.845Z,126.87
2019-03-12T02:18:43.103Z,127.37
2019-03-12T02:21:11.384Z,129.03
2019-03-12T02:23:39.642Z,127.63
2019-03-12T02:26:07.914Z,127.33
2019-03-12T02:28:36.171Z,126.37
2019-03-12T02:31:04.455Z,126.30
2019-03-12T02:33:32.696Z,127.50
2019-03-12T02:36:00.974Z,126.30
2019-03-12T02:38:29.245Z,128.53
2019-03-12T02:40:57.531Z,126.60
2019-03-12T02:43:26.094Z,122.93
2019-03-12T02:45:54.603Z,122.80
2019-03-12T02:48:22.882Z,122.80
2019-03-12T02:50:51.393Z,120.50
2019-03-12T02:53:19.902Z,121.47
2019-03-12T02:55:48.174Z,122.47
2019-03-12T02:58:16.449Z,118.67
2019-03-12T03:00:44.728Z,122.93
2019-03-12T03:03:12.998Z,117.50
2019-03-12T03:05:45.897Z,115.83
2019-03-12T03:08:15.784Z,110.37
2019-03-12T03:10:44.301Z,110.20
2019-03-12T03:13:12.560Z,111.60
2019-03-12T03:15:42.465Z,108.80
2019-03-12T03:18:10.733Z,106.07
2019-03-12T03:20:39.010Z,105.07
2019-03-12T03:23:07.269Z,102.83
2019-03-12T03:25:35.549Z,102.93
2019-03-12T03:28:03.824Z,101.80
2019-03-12T03:30:32.103Z,102.23
2019-03-12T03:33:00.431Z,99.20
2019-03-12T03:35:28.689Z,100.90
2019-03-12T03:37:56.975Z,95.30
2019-03-12T03:40:25.281Z,94.50
2019-03-12T03:42:53.806Z,89.87
2019-03-12T03:45:22.253Z,88.50
2019-03-12T03:47:50.509Z,86.67
2019-03-12T03:50:18.780Z,88.33
2019-03-12T03:52:47.118Z,84.73
2019-03-12T03:55:19.608Z,79.97
2019-03-12T03:57:47.853Z,83.53
2019-03-12T04:00:21.361Z,79.23
2019-03-12T04:02:49.673Z,79.37
2019-03-12T04:05:18.058Z,73.53
2019-03-12T04:07:46.331Z,71.83
2019-03-12T04:10:14.915Z,72.80
2019-03-12T04:12:43.264Z,70.23
2019-03-12T04:15:13.194Z,67.37
2019-03-12T04:17:41.753Z,63.47
2019-03-12T04:20:11.366Z,66.03
2019-03-12T04:22:39.629Z,66.77
2019-03-12T04:25:08.797Z,63.27
2019-03-12T04:27:37.066Z,63.73
2019-03-12T04:30:16.094Z,63.33
2019-03-12T04:32:44.369Z,60.70
2019-03-12T04:35:24.366Z,57.55
2019-03-12T04:37:52.883Z,56.37
2019-03-12T04:40:21.133Z,55.20
2019-03-12T04:42:49.418Z,54.07
2019-03-12T04:45:17.670Z,53.93
2019-03-12T04:47:45.960Z,53.30
2019-03-12T04:50:14.550Z,51.80
2019-03-12T04:52:42.797Z,51.23
2019-03-12T04:55:15.554Z,47.87
2019-03-12T04:57:43.829Z,48.50
2019-03-12T05:00:14.626Z,46.40
2019-03-12T05:02:42.898Z,46.37
2019-03-12T05:05:11.149Z,44.43
2019-03-12T05:07:39.408Z,44.47
2019-03-12T05:10:12.743Z,41.97
2019-03-12T05:12:41.238Z,41.30
2019-03-12T05:15:14.981Z,41.33
2019-03-12T05:17:43.701Z,39.73
2019-03-12T05:20:13.293Z,41.13
2019-03-12T05:22:41.549Z,38.13
2019-03-12T05:25:11.666Z,37.50
2019-03-12T05:27:39.920Z,36.77
2019-03-12T05:30:13.947Z,35.07
2019-03-12T05:32:42.230Z,34.03
2019-03-12T05:35:10.480Z,32.80
2019-03-12T05:37:38.745Z,32.57
2019-03-12T05:40:12.632Z,32.97
2019-03-12T05:42:40.905Z,29.77
2019-03-12T05:45:14.096Z,28.60
2019-03-12T05:47:42.364Z,28.10
2019-03-12T05:50:17.405Z,27.10
2019-03-12T05:52:48.800Z,25.70
2019-03-12T05:55:15.760Z,26.53
2019-03-12T05:57:44.003Z,25.40
2019-03-12T06:00:17.489Z,24.20
2019-03-12T06:02:46.045Z,23.97
2019-03-12T06:05:14.297Z,23.23
2019-03-12T06:07:42.577Z,22.63
2019-03-12T06:10:12.093Z,22.00
2019-03-12T06:12:40.365Z,20.80
2019-03-12T06:15:16.189Z,20.63
2019-03-12T06:17:44.457Z,20.57
2019-03-12T06:20:14.821Z,20.00
2019-03-12T06:22:43.084Z,19.17
2019-03-12T06:25:11.347Z,19.07
2019-03-12T06:27:39.693Z,18.50
2019-03-12T06:30:12.954Z,18.70
2019-03-12T06:32:55.003Z,16.90
2019-03-12T06:35:25.133Z,16.40
2019-03-12T06:37:55.295Z,15.03
2019-03-12T06:40:27.897Z,15.23
2019-03-12T06:42:57.866Z,14.97
2019-03-12T06:45:33.526Z,15.27
2019-03-12T06:48:15.543Z,13.67
2019-03-12T06:50:51.305Z,13.63
2019-03-12T06:53:21.505Z,12.93
2019-03-12T06:55:51.410Z,12.73
2019-03-12T06:58:37.586Z,11.80
2019-03-12T07:01:08.318Z,12.40
2019-03-12T07:03:41.235Z,12.13
2019-03-12T07:06:23.489Z,11.47
2019-03-12T07:08:53.402Z,11.37
2019-03-12T07:11:39.339Z,10.70
2019-03-12T07:14:12.165Z,10.30
2019-03-12T07:16:42.071Z,9.97
2019-03-12T07:19:14.889Z,9.60
2019-03-12T07:21:47.501Z,9.13
2019-03-12T07:24:26.598Z,9.03
2019-03-12T07:26:59.692Z,8.80
2019-03-12T07:29:32.277Z,8.53
2019-03-12T07:32:08.444Z,8.83
2019-03-12T07:34:44.122Z,7.93
2019-03-12T07:37:28.890Z,7.73
2019-03-12T07:39:58.818Z,7.50
2019-03-12T07:42:28.785Z,6.97
2019-03-12T07:44:58.661Z,7.23
2019-03-12T07:47:35.607Z,6.30
2019-03-12T07:50:03.169Z,6.63
2019-03-12T07:52:49.333Z,6.27
2019-03-12T07:55:19.228Z,6.60
2019-03-12T07:57:49.116Z,6.23
2019-03-12T08:00:21.954Z,5.90
2019-03-12T08:02:51.898Z,5.50
2019-03-12T08:05:27.970Z,5.40
2019-03-12T08:07:56.499Z,5.10
2019-03-12T08:10:38.166Z,5.70
2019-03-12T08:13:16.892Z,5.10
2019-03-12T08:15:50.600Z,4.87
2019-03-12T08:18:29.660Z,4.67
2019-03-12T08:21:02.312Z,4.90
2019-03-12T08:23:38.197Z,4.37
2019-03-12T08:26:11.040Z,4.40
2019-03-12T08:28:41.169Z,4.10
2019-03-12T08:31:14.105Z,5.27
2019-03-12T08:33:50.456Z,4.00
2019-03-12T08:36:15.858Z,4.03
2019-03-12T08:39:01.793Z,3.60
2019-03-12T08:41:31.689Z,3.80
2019-03-12T08:44:01.592Z,3.30
2019-03-12T08:46:31.469Z,3.60
2019-03-12T08:49:17.386Z,3.57
2019-03-12T08:51:47.522Z,3.40
2019-03-12T08:54:17.416Z,2.97
2019-03-12T08:56:47.310Z,3.00
2019-03-12T08:59:17.206Z,3.30
2019-03-12T09:02:03.368Z,3.03
2019-03-12T09:04:42.502Z,2.83
2019-03-12T09:07:24.417Z,2.80
2019-03-12T09:10:00.378Z,2.80
2019-03-12T09:12:33.446Z,2.60
2019-03-12T09:15:18.414Z,2.70
2019-03-12T09:18:00.283Z,2.57
2019-03-12T09:20:38.827Z,2.47
2019-03-12T09:23:08.729Z,2.40
2019-03-12T09:25:47.578Z,2.50
2019-03-12T09:28:23.418Z,2.37
2019-03-12T09:30:53.339Z,2.60
2019-03-12T09:33:23.218Z,2.20
2019-03-12T09:36:01.773Z,2.10
2019-03-12T09:38:34.342Z,2.47
2019-03-12T09:41:09.966Z,2.37
2019-03-12T09:43:51.628Z,1.93
2019-03-12T09:46:21.521Z,3.47
2019-03-12T09:48:51.445Z,2.37
2019-03-12T09:51:27.245Z,2.60
2019-03-12T09:54:13.453Z,2.23
2019-03-12T09:56:43.359Z,2.30
2019-03-12T09:59:13.286Z,2.37
2019-03-12T10:01:48.593Z,1.77
2019-03-12T10:04:18.651Z,2.00
2019-03-12T10:06:57.321Z,1.90
2019-03-12T10:09:27.226Z,2.30
2019-03-12T10:11:57.365Z,2.50
2019-03-12T10:14:43.515Z,2.00
2019-03-12T10:17:29.438Z,1.90
2019-03-12T10:20:08.385Z,2.40
2019-03-12T10:22:41.049Z,2.53
2019-03-12T10:25:26.965Z,2.00
2019-03-12T10:27:56.869Z,2.07
2019-03-12T10:30:29.853Z,2.73
2019-03-12T10:33:02.443Z,2.70
2019-03-12T10:35:41.361Z,3.10
2019-03-12T10:38:56.761Z,1.97
2019-03-12T10:41:26.914Z,1.87
2019-03-12T10:43:55.769Z,2.70
2019-03-12T10:46:25.689Z,2.83
2019-03-12T10:48:53.961Z,2.93
2019-03-12T10:51:22.654Z,2.33
2019-03-12T10:53:50.915Z,1.93
2019-03-12T10:56:19.158Z,2.67
2019-03-12T10:58:47.408Z,1.70
2019-03-12T11:01:15.678Z,1.57
2019-03-12T11:03:43.945Z,1.93
2019-03-12T11:06:12.205Z,1.90
2019-03-12T11:08:40.460Z,2.37
2019-03-12T11:11:08.821Z,1.77
2019-03-12T11:13:37.138Z,2.03
2019-03-12T11:16:06.049Z,2.33
2019-03-12T11:18:34.297Z,2.47
2019-03-12T11:21:02.560Z,2.10
2019-03-12T11:23:30.801Z,1.73
2019-03-12T11:25:59.065Z,1.93
2019-03-12T11:28:27.339Z,1.67
2019-03-12T11:30:55.581Z,2.03
2019-03-12T11:33:24.111Z,2.63
2019-03-12T11:35:52.348Z,2.40
2019-03-12T11:38:20.619Z,2.13
2019-03-12T11:40:49.072Z,2.07
2019-03-12T11:43:17.758Z,1.70
2019-03-12T11:45:46.074Z,2.77
2019-03-12T11:48:14.567Z,1.83
2019-03-12T11:50:42.914Z,1.87
2019-03-12T11:53:11.163Z,2.13
2019-03-12T11:55:39.422Z,2.40
2019-03-12T11:58:07.678Z,1.97
2019-03-12T12:00:40.278Z,1.97
2019-03-12T12:03:08.552Z,1.40
2019-03-12T12:05:37.033Z,2.03
2019-03-12T12:08:05.334Z,2.13
2019-03-12T12:10:33.647Z,2.07
2019-03-12T12:13:01.971Z,1.73
2019-03-12T12:15:30.214Z,1.97
2019-03-12T12:17:58.487Z,1.53
2019-03-12T12:20:30.042Z,1.70
2019-03-12T12:22:57.009Z,2.23
2019-03-12T12:25:25.253Z,1.73
2019-03-12T12:27:53.497Z,1.43
2019-03-12T12:30:22.804Z,2.10
2019-03-12T12:32:51.067Z,4.33
2019-03-12T12:35:19.367Z,2.70
2019-03-12T12:37:47.642Z,1.90
2019-03-12T12:40:17.990Z,2.60
2019-03-12T12:42:46.262Z,6.33
2019-03-12T12:45:19.556Z,4.37
2019-03-12T12:47:47.817Z,4.60
2019-03-12T12:50:16.080Z,2.63
2019-03-12T12:52:44.351Z,7.43
2019-03-12T12:55:14.079Z,4.87
2019-03-12T12:57:42.351Z,10.03
2019-03-12T13:00:19.006Z,4.17
2019-03-12T13:02:47.527Z,18.40
2019-03-12T13:05:16.038Z,6.57
2019-03-12T13:07:44.361Z,4.27
2019-03-12T13:10:18.384Z,17.43
2019-03-12T13:12:46.704Z,13.77
2019-03-12T13:15:14.970Z,15.73
2019-03-12T13:17:43.218Z,13.27
2019-03-12T13:20:11.490Z,11.50
2019-03-12T13:22:39.815Z,14.50
2019-03-12T13:25:13.705Z,17.17
2019-03-12T13:27:42.867Z,14.23
2019-03-12T13:30:14.060Z,13.80
2019-03-12T13:32:42.322Z,12.03
2019-03-12T13:35:12.531Z,13.73
2019-03-12T13:37:40.793Z,16.87
2019-03-12T13:40:12.237Z,17.00
2019-03-12T13:42:40.558Z,11.37
2019-03-12T13:45:12.208Z,13.48
2019-03-12T13:47:40.485Z,11.20
2019-03-12T13:50:12.730Z,19.40
2019-03-12T13:52:41.012Z,16.63
2019-03-12T13:55:11.738Z,11.20
2019-03-12T13:57:40.083Z,18.63
2019-03-12T14:00:13.672Z,19.33
2019-03-12T14:02:42.186Z,13.75
2019-03-12T14:05:11.185Z,18.35
2019-03-12T14:07:39.674Z,18.87
2019-03-12T14:10:25.630Z,14.87
2019-03-12T14:12:54.534Z,15.87
2019-03-12T14:15:32.614Z,18.48
2019-03-12T14:18:00.957Z,18.12
2019-03-12T14:20:38.197Z,17.92
2019-03-12T14:23:07.008Z,11.77
2019-03-12T14:25:35.501Z,14.70
2019-03-12T14:28:03.761Z,12.23
2019-03-12T14:30:32.026Z,15.03
2019-03-12T14:33:00.278Z,12.18
2019-03-12T14:35:28.956Z,15.30
2019-03-12T14:37:57.261Z,12.85
2019-03-12T14:40:25.520Z,11.63
2019-03-12T14:42:53.797Z,12.28
2019-03-12T14:45:29.808Z,13.95
2019-03-12T14:47:58.142Z,18.30
2019-03-12T14:50:30.433Z,21.30
2019-03-12T14:53:17.320Z,15.00
2019-03-12T14:55:37.525Z,14.47
2019-03-12T14:58:06.054Z,15.63
2019-03-12T15:00:34.541Z,20.52
2019-03-12T15:03:02.844Z,16.73
2019-03-12T15:05:31.145Z,20.63
2019-03-12T15:07:59.661Z,25.70
2019-03-12T15:10:27.913Z,12.30
2019-03-12T15:12:56.242Z,15.03
2019-03-12T15:15:24.526Z,17.75
2019-03-12T15:17:53.098Z,19.77
2019-03-12T15:20:21.400Z,22.90
2019-03-12T15:22:49.662Z,18.75
2019-03-12T15:25:17.913Z,18.70
2019-03-12T15:27:46.173Z,16.20
2019-03-12T15:30:17.555Z,18.17
2019-03-12T15:32:45.805Z,21.15
2019-03-12T15:35:14.048Z,18.87
2019-03-12T15:37:42.328Z,16.70
2019-03-12T15:40:11.810Z,16.70
2019-03-12T15:42:40.086Z,12.80
2019-03-12T15:45:15.082Z,17.83
2019-03-12T15:47:43.358Z,13.50
2019-03-12T15:50:13.361Z,10.77
2019-03-12T15:52:41.849Z,12.03
2019-03-12T15:55:10.120Z,18.53
2019-03-12T15:57:38.613Z,13.93
2019-03-12T16:00:10.289Z,11.83
2019-03-12T16:02:38.546Z,11.90
2019-03-12T16:05:07.931Z,14.10
2019-03-12T16:07:36.441Z,11.13
2019-03-12T16:10:19.604Z,14.37
2019-03-12T16:12:48.268Z,7.70
2019-03-12T16:15:17.545Z,11.43
2019-03-12T16:17:45.820Z,8.37
2019-03-12T16:20:17.324Z,10.17
2019-03-12T16:22:45.584Z,9.10
2019-03-12T16:25:13.833Z,9.47
2019-03-12T16:27:42.119Z,10.17
2019-03-12T16:30:12.502Z,15.80
2019-03-12T16:32:41.003Z,9.53
2019-03-12T16:35:09.693Z,12.57
2019-03-12T16:37:37.943Z,12.37
2019-03-12T16:40:14.329Z,9.20
2019-03-12T16:42:42.581Z,7.43
2019-03-12T16:45:12.105Z,8.63
2019-03-12T16:47:40.347Z,12.77
2019-03-12T16:50:11.190Z,10.97
2019-03-12T16:52:39.699Z,11.27
2019-03-12T16:55:09.685Z,11.07
2019-03-12T16:57:38.194Z,7.57
2019-03-12T17:00:19.660Z,9.10
2019-03-12T17:02:48.266Z,9.80
2019-03-12T17:05:16.821Z,9.63
2019-03-12T17:07:45.095Z,13.20
2019-03-12T17:10:20.822Z,15.43
2019-03-12T17:12:49.065Z,10.97
2019-03-12T17:15:26.754Z,9.23
2019-03-12T17:17:55.258Z,7.57
2019-03-12T17:20:23.535Z,7.67
2019-03-12T17:22:51.893Z,14.67
2019-03-12T17:25:20.465Z,10.77
2019-03-12T17:27:51.447Z,12.27
2019-03-12T17:30:24.210Z,13.53
2019-03-12T17:32:52.470Z,11.00
2019-03-12T17:35:24.053Z,10.50
2019-03-12T17:37:52.357Z,10.03
2019-03-12T17:40:21.732Z,13.87
2019-03-12T17:42:50.011Z,11.53
2019-03-12T17:45:18.341Z,9.00
2019-03-12T17:47:46.608Z,11.13
2019-03-12T17:50:14.914Z,11.97
2019-03-12T17:52:43.182Z,7.43
2019-03-12T17:55:14.622Z,8.67
2019-03-12T17:57:43.204Z,14.33
2019-03-12T18:00:14.644Z,8.23
2019-03-12T18:02:43.099Z,7.93
2019-03-12T18:05:12.527Z,5.17
2019-03-12T18:07:41.043Z,7.30
2019-03-12T18:10:11.625Z,7.53
2019-03-12T18:12:39.893Z,11.37
2019-03-12T18:15:11.056Z,6.03
2019-03-12T18:17:39.297Z,9.10
2019-03-12T18:20:10.609Z,6.90
2019-03-12T18:22:39.161Z,6.70
2019-03-12T18:25:10.894Z,5.07
2019-03-12T18:27:39.166Z,4.97
2019-03-12T18:30:10.917Z,8.50
2019-03-12T18:32:39.428Z,4.87
2019-03-12T18:35:08.849Z,4.93
2019-03-12T18:37:37.106Z,3.43
2019-03-12T18:40:11.763Z,4.53
2019-03-12T18:42:40.294Z,6.63
2019-03-12T18:45:17.135Z,5.33
2019-03-12T18:47:45.373Z,5.93
2019-03-12T18:50:15.222Z,4.17
2019-03-12T18:52:43.457Z,4.67
2019-03-12T18:55:31.257Z,6.00
2019-03-12T18:57:59.501Z,3.10
2019-03-12T19:00:28.006Z,3.03
2019-03-12T19:02:56.257Z,3.50
2019-03-12T19:05:27.891Z,4.13
2019-03-12T19:07:54.733Z,4.53
2019-03-12T19:10:22.997Z,2.77
2019-03-12T19:12:51.546Z,5.20
2019-03-12T19:15:20.050Z,4.97
2019-03-12T19:17:48.293Z,3.67
2019-03-12T19:20:17.513Z,7.07
2019-03-12T19:22:45.761Z,6.93
2019-03-12T19:25:19.582Z,6.07
2019-03-12T19:27:59.358Z,6.30
2019-03-12T19:30:20.052Z,4.77
2019-03-12T19:32:49.940Z,5.40
2019-03-12T19:35:21.301Z,2.90
2019-03-12T19:37:49.554Z,4.00
2019-03-12T19:40:23.086Z,3.57
2019-03-12T19:42:51.340Z,2.80
2019-03-12T19:45:19.826Z,4.10
2019-03-12T19:47:48.310Z,3.77
2019-03-12T19:50:18.515Z,3.03
2019-03-12T19:52:46.762Z,3.17
2019-03-12T19:55:18.426Z,4.07
2019-03-12T19:57:46.683Z,3.80
2019-03-12T20:00:16.653Z,2.90
2019-03-12T20:02:45.663Z,4.03
2019-03-12T20:05:13.897Z,3.43
2019-03-12T20:07:42.494Z,4.07
2019-03-12T20:10:19.748Z,4.60
2019-03-12T20:13:10.666Z,3.33
2019-03-12T20:16:07.628Z,3.90
2019-03-12T20:19:01.692Z,3.50
2019-03-12T20:21:45.294Z,2.53
2019-03-12T20:24:49.829Z,3.40
2019-03-12T20:27:45.420Z,2.83
2019-03-12T20:30:36.602Z,2.10
2019-03-12T20:33:13.829Z,4.73
2019-03-12T20:36:18.233Z,2.60
2019-03-12T20:38:55.377Z,2.90
2019-03-12T20:41:52.093Z,2.70
2019-03-12T20:44:39.933Z,3.47
2019-03-12T20:47:42.677Z,4.60
2019-03-12T20:50:25.947Z,2.70
2019-03-12T20:53:00.014Z,4.03
2019-03-12T20:56:03.069Z,2.60
2019-03-12T20:58:43.642Z,1.87
2019-03-12T21:01:30.126Z,2.90
2019-03-12T21:04:13.187Z,2.37
2019-03-12T21:06:47.599Z,2.17
2019-03-12T21:09:53.457Z,2.53
2019-03-12T21:12:53.423Z,2.87
2019-03-12T21:15:46.702Z,1.87
2019-03-12T21:18:24.182Z,11.27
2019-03-12T21:21:12.489Z,3.63
2019-03-12T21:23:56.148Z,2.33
2019-03-12T21:26:27.666Z,2.47
2019-03-12T21:29:10.585Z,2.97
2019-03-12T21:31:38.844Z,1.93
2019-03-12T21:34:07.094Z,2.43
2019-03-12T21:36:35.362Z,3.03
2019-03-12T21:39:04.544Z,3.90
2019-03-12T21:41:32.802Z,2.83
2019-03-12T21:44:01.070Z,2.23
2019-03-12T21:46:29.562Z,2.80
2019-03-12T21:48:57.834Z,2.70
2019-03-12T21:51:26.077Z,2.90
2019-03-12T21:53:54.321Z,3.47
2019-03-12T21:56:22.830Z,2.97
2019-03-12T21:58:51.078Z,1.93
2019-03-12T22:01:19.585Z,2.50
2019-03-12T22:03:47.845Z,1.93
2019-03-12T22:06:16.109Z,4.80
2019-03-12T22:08:44.466Z,2.33
2019-03-12T22:11:12.733Z,2.47
2019-03-12T22:13:40.981Z,3.77
2019-03-12T22:16:09.486Z,2.73
2019-03-12T22:18:37.741Z,2.13
2019-03-12T22:21:06.010Z,2.50
2019-03-12T22:23:44.808Z,1.93
2019-03-12T22:26:13.319Z,5.30
2019-03-12T22:28:41.556Z,2.10
2019-03-12T22:31:09.841Z,4.00
2019-03-12T22:33:38.077Z,1.70
2019-03-12T22:36:06.317Z,2.33
2019-03-12T22:38:34.598Z,2.63
2019-03-12T22:41:03.176Z,2.30
2019-03-12T22:43:31.505Z,3.03
2019-03-12T22:45:59.775Z,2.47
2019-03-12T22:48:28.029Z,2.00
2019-03-12T22:50:56.543Z,2.27
2019-03-12T22:53:24.790Z,2.13
2019-03-12T22:55:53.073Z,2.83
2019-03-12T22:58:21.307Z,2.00
2019-03-12T23:00:49.753Z,2.07
2019-03-12T23:03:18.281Z,1.93
2019-03-12T23:05:46.565Z,2.33
2019-03-12T23:08:14.837Z,1.90
2019-03-12T23:10:43.080Z,1.90
2019-03-12T23:13:11.345Z,2.60
2019-03-12T23:15:39.593Z,1.77
2019-03-12T23:18:08.102Z,2.10
2019-03-12T23:20:36.367Z,2.10
2019-03-12T23:23:04.608Z,3.17
2019-03-12T23:25:33.107Z,1.93
2019-03-12T23:28:01.369Z,1.93
2019-03-12T23:30:29.642Z,1.70
2019-03-12T23:32:57.970Z,2.40
2019-03-12T23:35:26.211Z,3.17
2019-03-12T23:37:54.474Z,1.40
2019-03-12T23:40:22.720Z,1.93
2019-03-12T23:42:50.989Z,3.07
2019-03-12T23:45:19.257Z,2.83
2019-03-12T23:47:50.157Z,1.60
2019-03-12T23:50:18.613Z,1.83
2019-03-12T23:52:46.846Z,2.57
2019-03-12T23:55:15.904Z,2.10
2019-03-12T23:57:44.160Z,1.60
